createdAt,value
2023-04-13T00:00:55.843Z,12.60
2023-04-13T00:03:24.507Z,12.58
2023-04-13T00:05:53.774Z,12.68
2023-04-13T00:08:23.015Z,12.31
2023-04-13T00:10:54.381Z,12.52
2023-04-13T00:13:22.461Z,12.57
2023-04-13T00:15:50.477Z,12.48
2023-04-13T00:18:19.114Z,12.43
2023-04-13T00:20:47.143Z,12.27
2023-04-13T00:23:16.497Z,12.33
2023-04-13T00:25:44.750Z,12.46
2023-04-13T00:28:16.640Z,12.35
2023-04-13T00:30:44.754Z,12.44
2023-04-13T00:33:12.978Z,12.32
2023-04-13T00:35:41.709Z,12.27
2023-04-13T00:38:11.587Z,12.28
2023-04-13T00:40:39.654Z,12.09
2023-04-13T00:43:07.692Z,12.06
2023-04-13T00:45:39.050Z,11.90
2023-04-13T00:48:10.675Z,12.11
2023-04-13T00:50:38.888Z,12.04
2023-04-13T00:53:10.616Z,12.03
2023-04-13T00:55:42.541Z,11.70
2023-04-13T00:58:10.763Z,11.97
2023-04-13T01:00:43.205Z,11.94
2023-04-13T01:03:11.866Z,11.93
2023-04-13T01:05:50.522Z,11.96
2023-04-13T01:08:25.823Z,11.88
2023-04-13T01:10:59.871Z,11.91
2023-04-13T01:13:36.065Z,11.63
2023-04-13T01:16:16.695Z,11.83
2023-04-13T01:18:50.100Z,11.96
2023-04-13T01:21:24.309Z,11.81
2023-04-13T01:24:02.933Z,11.91
2023-04-13T01:26:39.194Z,11.72
2023-04-13T01:29:10.203Z,11.66
2023-04-13T01:31:38.992Z,11.63
2023-04-13T01:34:07.296Z,11.75
2023-04-13T01:36:35.703Z,11.56
2023-04-13T01:39:04.412Z,11.56
2023-04-13T01:41:33.456Z,11.62
2023-04-13T01:44:01.938Z,11.55
2023-04-13T01:46:37.837Z,11.69
2023-04-13T01:49:12.130Z,11.64
2023-04-13T01:51:59.889Z,11.41
2023-04-13T01:54:33.816Z,11.43
2023-04-13T01:57:03.338Z,11.54
2023-04-13T01:59:31.656Z,11.53
2023-04-13T02:02:01.505Z,11.35
2023-04-13T02:04:29.616Z,11.26
2023-04-13T02:06:58.915Z,11.22
2023-04-13T02:09:31.465Z,11.15
2023-04-13T02:11:59.727Z,11.26
2023-04-13T02:14:28.303Z,11.37
2023-04-13T02:16:56.402Z,11.41
2023-04-13T02:19:25.842Z,11.37
2023-04-13T02:21:54.183Z,11.21
2023-04-13T02:24:22.188Z,10.85
2023-04-13T02:26:50.972Z,11.11
2023-04-13T02:29:18.984Z,11.14
2023-04-13T02:31:47.181Z,11.09
2023-04-13T02:34:15.360Z,11.18
2023-04-13T02:36:46.495Z,10.86
2023-04-13T02:39:14.519Z,11.03
2023-04-13T02:41:43.367Z,11.09
2023-04-13T02:44:15.970Z,11.08
2023-04-13T02:46:51.383Z,11.07
2023-04-13T02:49:19.684Z,10.99
2023-04-13T02:51:58.808Z,11.16
2023-04-13T02:54:44.471Z,10.82
2023-04-13T02:57:13.467Z,10.98
2023-04-13T02:59:43.297Z,10.86
2023-04-13T03:02:12.661Z,10.76
2023-04-13T03:04:41.238Z,10.85
2023-04-13T03:07:10.787Z,10.79
2023-04-13T03:09:44.719Z,10.66
2023-04-13T03:12:13.343Z,10.50
2023-04-13T03:14:43.965Z,10.60
2023-04-13T03:17:12.736Z,10.61
2023-04-13T03:19:42.725Z,10.49
2023-04-13T03:22:13.142Z,10.69
2023-04-13T03:24:47.309Z,10.63
2023-04-13T03:27:23.203Z,10.36
2023-04-13T03:29:53.266Z,10.44
2023-04-13T03:32:23.917Z,10.73
2023-04-13T03:34:58.991Z,10.61
2023-04-13T03:37:30.451Z,10.68
2023-04-13T03:40:05.205Z,10.62
2023-04-13T03:42:42.065Z,10.79
2023-04-13T03:45:11.322Z,10.69
2023-04-13T03:47:40.944Z,10.74
2023-04-13T03:50:11.323Z,10.72
2023-04-13T03:52:41.865Z,10.61
2023-04-13T03:55:10.792Z,10.74
2023-04-13T03:57:40.987Z,10.76
2023-04-13T04:00:15.890Z,10.76
2023-04-13T04:03:04.460Z,10.46
2023-04-13T04:05:40.453Z,10.61
2023-04-13T04:08:10.103Z,10.69
2023-04-13T04:10:39.256Z,10.85
2023-04-13T04:13:07.386Z,10.80
2023-04-13T04:15:41.806Z,10.71
2023-04-13T04:18:10.561Z,10.70
2023-04-13T04:20:40.745Z,10.63
2023-04-13T04:23:13.880Z,10.52
2023-04-13T04:25:48.003Z,10.58
2023-04-13T04:28:18.213Z,10.68
2023-04-13T04:30:54.041Z,10.53
2023-04-13T04:33:23.688Z,10.70
2023-04-13T04:35:54.102Z,10.59
2023-04-13T04:38:30.507Z,10.60
2023-04-13T04:41:02.500Z,10.53
2023-04-13T04:43:32.217Z,10.59
2023-04-13T04:46:03.217Z,10.50
2023-04-13T04:48:33.066Z,10.63
2023-04-13T04:51:01.194Z,10.71
2023-04-13T04:53:35.525Z,10.72
2023-04-13T04:56:08.382Z,10.61
2023-04-13T04:58:46.362Z,10.41
2023-04-13T05:01:15.279Z,10.51
2023-04-13T05:03:43.938Z,10.56
2023-04-13T05:06:32.588Z,10.55
2023-04-13T05:09:06.015Z,10.60
2023-04-13T05:11:36.788Z,10.66
2023-04-13T05:14:06.998Z,10.71
2023-04-13T05:16:36.059Z,10.66
2023-04-13T05:19:12.728Z,10.45
2023-04-13T05:22:10.009Z,10.50
2023-04-13T05:24:45.968Z,10.76
2023-04-13T05:27:16.560Z,10.79
2023-04-13T05:29:46.887Z,10.65
2023-04-13T05:32:18.454Z,10.94
2023-04-13T05:34:48.411Z,10.92
2023-04-13T05:37:22.693Z,10.91
2023-04-13T05:39:52.105Z,10.56
2023-04-13T05:42:24.994Z,10.86
2023-04-13T05:44:53.266Z,11.12
2023-04-13T05:47:23.398Z,11.27
2023-04-13T05:49:56.188Z,11.17
2023-04-13T05:52:25.551Z,11.12
2023-04-13T05:54:54.821Z,11.05
2023-04-13T05:57:24.485Z,10.93
2023-04-13T05:59:55.411Z,11.22
2023-04-13T06:02:27.376Z,11.18
2023-04-13T06:04:56.528Z,11.33
2023-04-13T06:07:26.077Z,11.31
2023-04-13T06:09:58.207Z,11.43
2023-04-13T06:12:26.631Z,11.25
2023-04-13T06:14:54.665Z,11.49
2023-04-13T06:17:22.601Z,11.52
2023-04-13T06:19:50.506Z,11.48
2023-04-13T06:22:18.390Z,11.33
2023-04-13T06:24:46.254Z,11.35
2023-04-13T06:27:15.564Z,11.66
2023-04-13T06:29:46.765Z,11.73
2023-04-13T06:32:14.945Z,11.73
2023-04-13T06:34:44.580Z,11.81
2023-04-13T06:37:13.051Z,11.50
2023-04-13T06:39:47.271Z,11.27
2023-04-13T06:42:16.825Z,11.69
2023-04-13T06:45:09.196Z,11.48
2023-04-13T06:47:42.045Z,11.37
2023-04-13T06:50:15.575Z,11.77
2023-04-13T06:52:45.465Z,11.71
2023-04-13T06:55:13.779Z,12.03
2023-04-13T06:57:43.761Z,11.71
2023-04-13T07:00:28.151Z,11.58
2023-04-13T07:02:58.471Z,11.78
2023-04-13T07:05:26.748Z,11.95
2023-04-13T07:07:58.292Z,11.92
2023-04-13T07:10:27.313Z,11.94
2023-04-13T07:12:59.353Z,11.99
2023-04-13T07:15:30.480Z,11.81
2023-04-13T07:17:58.807Z,12.17
2023-04-13T07:20:27.780Z,11.91
2023-04-13T07:22:55.701Z,12.41
2023-04-13T07:25:23.950Z,12.24
2023-04-13T07:27:52.328Z,12.42
2023-04-13T07:30:24.048Z,12.36
2023-04-13T07:32:52.156Z,12.46
2023-04-13T07:35:21.594Z,12.14
2023-04-13T07:37:52.833Z,12.37
2023-04-13T07:40:22.884Z,12.57
2023-04-13T07:42:54.541Z,12.43
2023-04-13T07:45:24.853Z,12.59
2023-04-13T07:47:54.700Z,12.47
2023-04-13T07:50:23.081Z,12.64
2023-04-13T07:52:52.280Z,12.57
2023-04-13T07:55:23.237Z,12.66
2023-04-13T07:57:52.677Z,12.62
2023-04-13T08:00:22.892Z,12.92
2023-04-13T08:02:58.321Z,13.15
2023-04-13T08:05:28.437Z,13.09
2023-04-13T08:07:56.876Z,13.42
2023-04-13T08:10:25.854Z,13.65
2023-04-13T08:12:56.043Z,13.92
2023-04-13T08:15:24.856Z,13.85
2023-04-13T08:17:53.874Z,13.58
2023-04-13T08:20:24.182Z,13.67
2023-04-13T08:22:54.139Z,13.49
2023-04-13T08:25:22.577Z,13.78
2023-04-13T08:27:51.029Z,13.78
2023-04-13T08:30:19.863Z,13.54
2023-04-13T08:32:54.663Z,13.76
2023-04-13T08:35:25.806Z,14.24
2023-04-13T08:37:53.960Z,14.27
2023-04-13T08:40:22.733Z,14.18
2023-04-13T08:42:55.327Z,14.11
2023-04-13T08:45:23.418Z,14.45
2023-04-13T08:47:51.584Z,14.52
2023-04-13T08:50:26.294Z,14.54
2023-04-13T08:52:55.923Z,14.49
2023-04-13T08:55:26.418Z,14.25
2023-04-13T08:57:59.411Z,14.28
2023-04-13T09:00:27.565Z,14.48
2023-04-13T09:03:04.892Z,14.06
2023-04-13T09:05:40.250Z,14.26
2023-04-13T09:08:11.669Z,14.52
2023-04-13T09:10:42.261Z,15.05
2023-04-13T09:13:10.446Z,14.94
2023-04-13T09:15:38.884Z,15.15
2023-04-13T09:18:49.877Z,15.24
2023-04-13T09:21:19.348Z,15.45
2023-04-13T09:23:54.718Z,15.77
2023-04-13T09:26:22.787Z,15.47
2023-04-13T09:28:53.229Z,14.33
2023-04-13T09:31:22.570Z,15.30
2023-04-13T09:33:51.989Z,15.22
2023-04-13T09:36:22.881Z,15.51
2023-04-13T09:38:55.182Z,15.43
2023-04-13T09:41:30.922Z,16.01
2023-04-13T09:43:59.344Z,16.00
2023-04-13T09:46:27.522Z,16.72
2023-04-13T09:49:05.095Z,16.02
2023-04-13T09:51:41.993Z,16.19
2023-04-13T09:54:12.044Z,16.24
2023-04-13T09:56:48.109Z,17.45
2023-04-13T09:59:17.220Z,17.76
2023-04-13T10:01:45.792Z,18.49
2023-04-13T10:04:14.131Z,18.42
2023-04-13T10:06:44.869Z,17.61
2023-04-13T10:09:12.969Z,17.00
2023-04-13T10:11:47.425Z,16.80
2023-04-13T10:14:19.029Z,16.49
2023-04-13T10:17:28.200Z,16.72
2023-04-13T10:20:07.813Z,16.95
2023-04-13T10:22:38.603Z,16.13
2023-04-13T10:25:08.062Z,16.31
2023-04-13T10:27:37.419Z,16.30
2023-04-13T10:30:16.008Z,16.31
2023-04-13T10:32:43.979Z,15.52
2023-04-13T10:35:14.322Z,16.50
2023-04-13T10:37:46.077Z,16.72
2023-04-13T10:40:16.262Z,16.68
2023-04-13T10:45:20.389Z,17.20
2023-04-13T10:47:49.043Z,16.65
2023-04-13T10:50:18.478Z,17.34
2023-04-13T10:53:03.017Z,18.07
2023-04-13T10:55:31.624Z,17.76
2023-04-13T10:58:00.664Z,17.82
2023-04-13T11:00:44.814Z,17.42
2023-04-13T11:03:16.777Z,17.92
2023-04-13T11:05:47.157Z,18.35
2023-04-13T11:08:20.581Z,17.66
2023-04-13T11:10:52.538Z,18.00
2023-04-13T11:13:20.965Z,17.71
2023-04-13T11:15:50.589Z,16.60
2023-04-13T11:18:27.094Z,16.65
2023-04-13T11:20:55.508Z,17.19
2023-04-13T11:23:25.402Z,17.24
2023-04-13T11:25:55.158Z,17.09
2023-04-13T11:28:24.140Z,17.24
2023-04-13T11:30:56.420Z,16.63
2023-04-13T11:33:29.948Z,16.64
2023-04-13T11:35:59.006Z,16.63
2023-04-13T11:38:28.893Z,16.82
2023-04-13T11:43:36.105Z,16.75
2023-04-13T11:46:03.980Z,17.11
2023-04-13T11:48:32.636Z,16.95
2023-04-13T11:51:00.994Z,16.78
2023-04-13T11:53:32.169Z,17.24
2023-04-13T11:56:00.212Z,16.76
2023-04-13T11:58:28.274Z,17.00
2023-04-13T12:00:59.898Z,17.34
2023-04-13T12:03:47.023Z,17.28
2023-04-13T12:06:24.462Z,17.46
2023-04-13T12:09:09.354Z,18.50
2023-04-13T12:11:41.982Z,17.49
2023-04-13T12:14:47.643Z,17.96
2023-04-13T12:17:34.780Z,18.03
2023-04-13T12:20:03.841Z,17.78
2023-04-13T12:22:50.893Z,17.63
2023-04-13T12:25:25.401Z,17.72
2023-04-13T12:27:54.747Z,17.61
2023-04-13T12:30:23.993Z,18.08
2023-04-13T12:32:54.117Z,17.70
2023-04-13T12:35:22.230Z,17.13
2023-04-13T12:37:50.228Z,16.65
2023-04-13T12:40:19.243Z,16.89
2023-04-13T12:42:49.590Z,16.89
2023-04-13T12:45:17.643Z,17.45
2023-04-13T12:47:45.634Z,17.85
2023-04-13T12:50:14.058Z,18.02
2023-04-13T12:52:43.665Z,17.86
2023-04-13T12:55:12.243Z,17.89
2023-04-13T12:57:40.565Z,17.75
2023-04-13T13:00:12.195Z,17.79
2023-04-13T13:02:40.208Z,17.73
2023-04-13T13:05:09.304Z,17.65
2023-04-13T13:07:37.246Z,17.67
2023-04-13T13:10:14.933Z,17.23
2023-04-13T13:12:49.884Z,17.38
2023-04-13T13:15:19.201Z,17.65
2023-04-13T13:17:47.129Z,18.04
2023-04-13T13:20:15.409Z,18.15
2023-04-13T13:22:43.574Z,17.54
2023-04-13T13:25:11.618Z,17.83
2023-04-13T13:28:10.209Z,18.11
2023-04-13T13:30:29.965Z,18.73
2023-04-13T13:32:57.909Z,18.49
2023-04-13T13:35:25.805Z,18.35
2023-04-13T13:37:53.686Z,18.14
2023-04-13T13:40:21.505Z,17.97
2023-04-13T13:42:52.304Z,17.78
2023-04-13T13:45:20.966Z,17.89
2023-04-13T13:47:53.216Z,17.97
2023-04-13T13:50:25.218Z,18.21
2023-04-13T13:53:02.392Z,18.02
2023-04-13T13:55:34.394Z,18.01
2023-04-13T13:58:02.435Z,17.51
2023-04-13T14:00:31.137Z,17.86
2023-04-13T14:03:00.829Z,18.01
2023-04-13T14:05:28.811Z,17.55
2023-04-13T14:07:56.663Z,17.60
2023-04-13T14:10:24.496Z,17.64
2023-04-13T14:12:54.605Z,17.74
2023-04-13T14:15:22.740Z,17.59
2023-04-13T14:18:02.418Z,17.39
2023-04-13T14:20:39.989Z,17.54
2023-04-13T14:23:09.722Z,17.45
2023-04-13T14:25:38.905Z,17.64
2023-04-13T14:28:08.969Z,17.01
2023-04-13T14:30:36.891Z,17.39
2023-04-13T14:33:05.767Z,17.62
2023-04-13T14:35:34.333Z,17.52
2023-04-13T14:38:03.749Z,17.35
2023-04-13T14:40:31.865Z,17.25
2023-04-13T14:42:59.794Z,16.93
2023-04-13T14:45:28.597Z,17.11
2023-04-13T14:47:56.477Z,17.29
2023-04-13T14:50:24.341Z,17.50
2023-04-13T14:52:52.447Z,17.65
2023-04-13T14:55:22.840Z,17.98
2023-04-13T14:57:51.107Z,17.99
2023-04-13T15:00:22.445Z,17.79
2023-04-13T15:02:52.474Z,17.86
2023-04-13T15:05:21.235Z,17.93
2023-04-13T15:07:50.764Z,18.07
2023-04-13T15:10:19.160Z,17.74
2023-04-13T15:12:49.011Z,17.26
2023-04-13T15:15:16.998Z,17.52
2023-04-13T15:17:44.982Z,17.15
2023-04-13T15:20:12.964Z,17.39
2023-04-13T15:22:40.793Z,17.15
2023-04-13T15:25:09.160Z,17.43
2023-04-13T15:27:37.142Z,17.66
2023-04-13T15:30:08.151Z,17.64
2023-04-13T15:32:36.310Z,17.29
2023-04-13T15:35:04.624Z,17.30
2023-04-13T15:37:32.497Z,17.17
2023-04-13T15:40:00.846Z,17.23
2023-04-13T15:42:28.689Z,17.27
2023-04-13T15:44:56.503Z,17.11
2023-04-13T15:47:25.726Z,17.40
2023-04-13T15:49:53.598Z,17.37
2023-04-13T15:52:21.433Z,17.15
2023-04-13T15:54:49.242Z,17.22
2023-04-13T15:57:17.488Z,17.05
2023-04-13T15:59:45.737Z,16.88
2023-04-13T16:02:13.772Z,17.11
2023-04-13T16:04:43.104Z,16.90
2023-04-13T16:07:14.105Z,17.01
2023-04-13T16:09:44.776Z,17.07
2023-04-13T16:12:12.914Z,16.77
2023-04-13T16:14:42.048Z,17.04
2023-04-13T16:17:10.357Z,17.16
2023-04-13T16:19:39.634Z,16.84
2023-04-13T16:22:10.918Z,16.77
2023-04-13T16:24:38.852Z,16.79
2023-04-13T16:27:07.321Z,16.74
2023-04-13T16:29:35.191Z,17.06
2023-04-13T16:32:03.142Z,17.38
2023-04-13T16:34:30.980Z,17.01
2023-04-13T16:36:58.888Z,16.94
2023-04-13T16:39:28.152Z,16.97
2023-04-13T16:41:56.032Z,17.03
2023-04-13T16:44:23.874Z,16.99
2023-04-13T16:46:51.811Z,16.90
2023-04-13T16:49:19.710Z,17.14
2023-04-13T16:51:48.476Z,17.32
2023-04-13T16:54:17.862Z,17.16
2023-04-13T16:56:47.173Z,17.15
2023-04-13T16:59:15.023Z,16.89
2023-04-13T17:01:42.841Z,16.81
2023-04-13T17:04:10.823Z,16.74
2023-04-13T17:06:39.645Z,16.91
2023-04-13T17:09:07.926Z,16.79
2023-04-13T17:11:36.023Z,16.85
2023-04-13T17:14:05.238Z,16.86
2023-04-13T17:16:33.164Z,16.99
2023-04-13T17:19:01.612Z,16.94
2023-04-13T17:21:29.787Z,16.66
2023-04-13T17:23:57.634Z,16.60
2023-04-13T17:26:25.456Z,16.69
2023-04-13T17:28:53.326Z,16.70
2023-04-13T17:31:22.574Z,16.47
2023-04-13T17:33:51.124Z,16.24
2023-04-13T17:36:19.403Z,16.33
2023-04-13T17:38:47.322Z,16.25
2023-04-13T17:41:15.305Z,16.19
2023-04-13T17:43:43.181Z,16.16
2023-04-13T17:46:12.426Z,16.03
2023-04-13T17:48:42.022Z,15.99
2023-04-13T17:51:11.673Z,16.01
2023-04-13T17:53:39.976Z,15.97
2023-04-13T17:56:09.190Z,15.89
2023-04-13T17:58:36.991Z,15.81
2023-04-13T18:01:09.192Z,15.85
2023-04-13T18:03:37.489Z,15.76
2023-04-13T18:06:07.059Z,15.62
2023-04-13T18:08:34.882Z,15.55
2023-04-13T18:11:02.815Z,15.65
2023-04-13T18:13:31.454Z,15.62
2023-04-13T18:15:59.516Z,15.60
2023-04-13T18:18:27.490Z,15.42
2023-04-13T18:20:55.641Z,15.34
2023-04-13T18:23:25.154Z,15.23
2023-04-13T18:25:53.165Z,15.01
2023-04-13T18:28:21.076Z,15.08
2023-04-13T18:30:48.941Z,14.92
2023-04-13T18:33:16.790Z,15.04
2023-04-13T18:35:45.768Z,14.86
2023-04-13T18:38:13.791Z,14.87
2023-04-13T18:40:43.288Z,14.87
2023-04-13T18:43:11.112Z,14.90
2023-04-13T18:45:39.051Z,14.78
2023-04-13T18:48:09.356Z,14.76
2023-04-13T18:50:37.597Z,14.63
2023-04-13T18:53:05.811Z,14.65
2023-04-13T18:55:33.827Z,14.57
2023-04-13T18:58:03.029Z,14.64
2023-04-13T19:00:32.286Z,14.42
2023-04-13T19:03:01.105Z,14.51
2023-04-13T19:05:29.220Z,14.44
2023-04-13T19:07:58.942Z,14.40
2023-04-13T19:10:27.992Z,14.42
2023-04-13T19:12:56.542Z,14.32
2023-04-13T19:15:25.932Z,14.25
2023-04-13T19:17:54.105Z,14.30
2023-04-13T19:20:24.025Z,14.27
2023-04-13T19:22:52.473Z,14.25
2023-04-13T19:25:20.619Z,14.19
2023-04-13T19:27:50.095Z,14.20
2023-04-13T19:30:19.621Z,14.08
2023-04-13T19:32:50.959Z,14.15
2023-04-13T19:35:21.517Z,14.19
2023-04-13T19:37:49.381Z,14.15
2023-04-13T19:40:17.858Z,14.15
2023-04-13T19:42:47.064Z,14.09
2023-04-13T19:45:15.668Z,14.02
2023-04-13T19:47:43.694Z,14.10
2023-04-13T19:50:14.370Z,14.15
2023-04-13T19:52:42.878Z,13.94
2023-04-13T19:55:12.051Z,13.98
2023-04-13T19:57:42.815Z,13.98
2023-04-13T20:00:19.115Z,13.92
2023-04-13T20:02:49.570Z,13.92
2023-04-13T20:05:21.143Z,13.81
2023-04-13T20:07:50.368Z,13.79
2023-04-13T20:10:18.375Z,13.79
2023-04-13T20:12:46.229Z,13.78
2023-04-13T20:15:14.827Z,13.67
2023-04-13T20:17:42.716Z,13.62
2023-04-13T20:20:11.162Z,13.49
2023-04-13T20:22:40.499Z,13.63
2023-04-13T20:25:09.198Z,13.61
2023-04-13T20:27:41.701Z,13.57
2023-04-13T20:30:10.947Z,13.54
2023-04-13T20:32:39.148Z,13.47
2023-04-13T20:35:08.118Z,13.47
2023-04-13T20:37:36.300Z,13.36
2023-04-13T20:40:07.101Z,13.38
2023-04-13T20:42:35.052Z,13.41
2023-04-13T20:45:04.868Z,13.45
2023-04-13T20:47:35.580Z,13.32
2023-04-13T20:50:04.834Z,13.33
2023-04-13T20:52:32.650Z,13.30
2023-04-13T20:55:00.514Z,13.23
2023-04-13T20:57:30.386Z,13.25
2023-04-13T20:59:58.310Z,13.18
2023-04-13T21:02:26.656Z,13.11
2023-04-13T21:04:56.542Z,13.08
2023-04-13T21:07:24.472Z,13.04
2023-04-13T21:09:52.406Z,12.92
2023-04-13T21:12:20.285Z,12.95
2023-04-13T21:14:49.599Z,12.94
2023-04-13T21:17:17.468Z,12.99
2023-04-13T21:19:45.320Z,13.03
2023-04-13T21:22:13.167Z,12.92
2023-04-13T21:24:41.450Z,12.97
2023-04-13T21:27:09.278Z,12.96
2023-04-13T21:29:37.182Z,12.92
2023-04-13T21:32:06.536Z,12.95
2023-04-13T21:34:34.587Z,12.91
2023-04-13T21:37:03.241Z,12.89
2023-04-13T21:39:31.219Z,12.87
2023-04-13T21:41:59.062Z,12.84
2023-04-13T21:44:29.725Z,12.81
2023-04-13T21:46:58.411Z,12.76
2023-04-13T21:49:27.732Z,12.82
2023-04-13T21:51:55.604Z,12.82
2023-04-13T21:54:23.458Z,12.79
2023-04-13T21:56:51.379Z,12.70
2023-04-13T21:59:19.291Z,12.70
2023-04-13T22:01:47.391Z,12.64
2023-04-13T22:04:15.438Z,12.68
2023-04-13T22:06:44.710Z,12.67
2023-04-13T22:09:13.363Z,12.62
2023-04-13T22:11:41.427Z,12.51
2023-04-13T22:14:09.562Z,12.54
2023-04-13T22:16:37.415Z,12.55
2023-04-13T22:19:05.396Z,12.49
2023-04-13T22:21:35.644Z,12.46
2023-04-13T22:24:05.024Z,12.41
2023-04-13T22:26:32.891Z,12.39
2023-04-13T22:29:00.833Z,12.45
2023-04-13T22:31:28.910Z,12.47
2023-04-13T22:33:57.180Z,12.49
2023-04-13T22:36:25.107Z,12.49
2023-04-13T22:38:52.943Z,12.39
2023-04-13T22:41:22.186Z,12.37
2023-04-13T22:43:50.110Z,12.45
2023-04-13T22:46:18.568Z,12.27
2023-04-13T22:48:46.502Z,12.25
2023-04-13T22:51:14.330Z,12.25
2023-04-13T22:53:42.185Z,12.32
2023-04-13T22:56:10.079Z,12.31
2023-04-13T22:58:39.255Z,12.39
2023-04-13T23:01:07.075Z,12.33
2023-04-13T23:03:34.964Z,12.41
2023-04-13T23:06:05.385Z,12.37
2023-04-13T23:08:33.253Z,12.43
2023-04-13T23:11:08.017Z,12.43
2023-04-13T23:13:36.699Z,12.37
2023-04-13T23:16:06.944Z,12.30
2023-04-13T23:18:34.884Z,12.35
2023-04-13T23:21:10.096Z,12.38
2023-04-13T23:23:38.051Z,12.41
2023-04-13T23:26:06.735Z,12.35
2023-04-13T23:28:34.677Z,12.39
2023-04-13T23:31:08.314Z,12.47
2023-04-13T23:33:36.716Z,12.44
2023-04-13T23:36:05.026Z,12.50
2023-04-13T23:38:33.626Z,12.45
2023-04-13T23:41:01.587Z,12.38
2023-04-13T23:43:29.575Z,12.29
2023-04-13T23:45:58.969Z,12.39
2023-04-13T23:48:28.357Z,12.39
2023-04-13T23:50:57.245Z,12.46
2023-04-13T23:53:25.160Z,12.47
2023-04-13T23:55:53.014Z,12.51
2023-04-13T23:58:20.884Z,12.56
